Time;durP1;ratioP1;P1;durP2;ratioP2;P2;SDS_P1;SDS_P2;PMS_P1;PMS_P2;Temp;Humidity;BMP_temperature;BMP_pressure;BME280_temperature;BME280_humidity;BME280_pressure;Samples;Min_cycle;Max_cycle;Signal;HPM_P1;HPM_P2
2022/09/09 00:01:25;;;;;;;179.57;41.23;;;14.30;95.70;;;;;;5000437;28;20169;-88
2022/09/09 00:04:04;;;;;;;171.40;43.70;;;14.30;95.70;;;;;;5000107;28;20232;-88
2022/09/09 00:06:35;;;;;;;198.83;42.20;;;14.20;95.70;;;;;;4999922;28;20208;-87
2022/09/09 00:09:10;;;;;;;259.63;46.70;;;14.20;95.70;;;;;;5000388;28;20162;-88
2022/09/09 00:12:04;;;;;;;168.97;43.80;;;14.20;95.70;;;;;;5018157;28;20161;-87
2022/09/09 00:15:02;;;;;;;159.23;43.00;;;14.20;95.70;;;;;;4999836;28;20698;-88
2022/09/09 00:17:47;;;;;;;154.63;42.13;;;14.20;95.70;;;;;;4983322;28;20227;-88
2022/09/09 00:20:15;;;;;;;116.70;37.87;;;14.20;95.80;;;;;;5000480;28;20181;-88
2022/09/09 00:23:06;;;;;;;100.67;39.60;;;14.20;95.80;;;;;;4999938;28;20553;-88
2022/09/09 00:26:00;;;;;;;73.90;42.00;;;14.10;95.80;;;;;;5016974;28;20224;-87
2022/09/09 00:28:30;;;;;;;122.03;40.47;;;14.20;95.80;;;;;;4986391;28;20565;-87
2022/09/09 00:31:00;;;;;;;119.07;38.67;;;14.20;95.80;;;;;;5000004;28;20170;-87
2022/09/09 00:33:27;;;;;;;109.07;42.17;;;14.10;95.90;;;;;;4999546;28;20177;-88
2022/09/09 00:35:56;;;;;;;104.40;42.03;;;14.20;95.90;;;;;;4999449;28;20559;-87
2022/09/09 00:38:33;;;;;;;135.83;45.20;;;14.20;95.90;;;;;;5000044;28;20174;-88
2022/09/09 00:41:11;;;;;;;99.27;43.47;;;14.20;96.00;;;;;;4999776;28;20170;-88
2022/09/09 00:43:40;;;;;;;107.07;44.37;;;14.20;96.00;;;;;;4999140;28;20176;-87
2022/09/09 00:46:23;;;;;;;91.77;43.37;;;14.20;96.00;;;;;;4999549;28;20721;-87
2022/09/09 00:49:18;;;;;;;98.87;44.40;;;14.20;96.00;;;;;;4999670;28;20169;-88
2022/09/09 00:51:51;;;;;;;107.63;44.80;;;14.20;96.00;;;;;;4998887;28;20221;-89
2022/09/09 00:54:37;;;;;;;108.93;42.77;;;14.20;96.00;;;;;;5016256;28;20193;-88
2022/09/09 00:57:24;;;;;;;109.00;43.33;;;14.20;96.00;;;;;;4998491;28;20200;-87
2022/09/09 01:00:22;;;;;;;152.80;44.37;;;14.20;96.00;;;;;;5015840;28;20169;-88
2022/09/09 01:03:25;;;;;;;129.57;42.90;;;14.20;96.10;;;;;;5015576;28;20255;-88
2022/09/09 01:06:09;;;;;;;111.13;41.93;;;14.20;96.00;;;;;;4998590;28;20679;-88
2022/09/09 01:08:52;;;;;;;84.93;41.07;;;14.20;96.00;;;;;;5016433;28;20227;-89
2022/09/09 01:11:43;;;;;;;135.60;42.13;;;14.10;96.10;;;;;;4998681;28;20227;-88
2022/09/09 01:14:25;;;;;;;107.20;41.50;;;14.10;96.00;;;;;;5015764;28;20158;-88
2022/09/09 01:17:17;;;;;;;83.33;40.10;;;14.00;96.10;;;;;;4998102;28;20224;-87
2022/09/09 01:19:42;;;;;;;108.83;39.53;;;14.00;96.00;;;;;;4997990;28;20746;-88
2022/09/09 01:22:24;;;;;;;170.00;41.17;;;14.00;96.00;;;;;;5015704;28;20173;-88
2022/09/09 01:25:05;;;;;;;148.73;39.77;;;14.00;96.00;;;;;;4997944;28;20175;-88
2022/09/09 01:27:32;;;;;;;198.23;41.73;;;14.00;96.00;;;;;;4998336;28;20236;-88
2022/09/09 01:29:59;;;;;;;189.13;40.73;;;14.00;96.00;;;;;;4998040;28;20713;-88
2022/09/09 01:32:46;;;;;;;241.70;40.20;;;13.90;96.00;;;;;;5015898;28;20169;-87
2022/09/09 01:35:21;;;;;;;67.77;35.43;;;14.00;96.00;;;;;;4998251;28;20208;-87
2022/09/09 01:37:47;;;;;;;51.17;34.33;;;14.00;96.00;;;;;;4998370;28;20196;-88
2022/09/09 01:40:12;;;;;;;64.33;35.33;;;14.00;96.00;;;;;;5015990;28;20547;-88
2022/09/09 01:42:38;;;;;;;50.57;34.07;;;14.10;96.00;;;;;;4998210;28;20648;-88
2022/09/09 01:45:04;;;;;;;47.50;32.30;;;14.10;96.00;;;;;;5014776;28;20201;-88
2022/09/09 01:47:30;;;;;;;62.57;32.27;;;14.20;96.00;;;;;;4997988;28;20243;-88
2022/09/09 01:49:55;;;;;;;114.93;33.07;;;14.10;96.00;;;;;;4997905;28;20548;-88
2022/09/09 01:52:21;;;;;;;39.93;30.60;;;14.00;96.00;;;;;;4998063;28;20185;-88
2022/09/09 01:54:47;;;;;;;56.50;30.88;;;14.00;96.00;;;;;;4998015;28;20213;-88
2022/09/09 01:57:22;;;;;;;39.33;29.97;;;14.00;96.00;;;;;;4997811;28;20610;-88
2022/09/09 02:00:24;;;;;;;38.37;29.33;;;14.00;95.90;;;;;;4999242;28;20169;-88
2022/09/09 02:03:05;;;;;;;36.20;28.97;;;14.00;95.90;;;;;;4920594;29;20176;-88
2022/09/09 02:05:39;;;;;;;35.23;27.83;;;14.00;95.90;;;;;;4992324;28;20224;-88
2022/09/09 02:08:20;;;;;;;33.50;28.23;;;13.90;95.90;;;;;;4997922;28;20543;-88
2022/09/09 02:11:01;;;;;;;34.07;28.57;;;13.90;95.90;;;;;;4997597;28;20188;-88
2022/09/09 02:13:28;;;;;;;43.93;31.33;;;13.90;95.80;;;;;;4997087;28;20177;-88
2022/09/09 02:16:23;;;;;;;36.87;28.77;;;13.90;95.90;;;;;;5014599;28;20284;-88
2022/09/09 02:19:00;;;;;;;38.20;30.40;;;13.80;95.80;;;;;;4997696;28;20166;-88
2022/09/09 02:21:30;;;;;;;39.53;29.07;;;13.90;95.90;;;;;;4997680;28;20175;-88
2022/09/09 02:23:59;;;;;;;32.30;28.07;;;13.90;95.80;;;;;;4997366;28;20248;-88
2022/09/09 02:26:26;;;;;;;36.67;29.47;;;13.80;95.80;;;;;;4997480;28;20323;-89
2022/09/09 02:28:55;;;;;;;36.50;28.13;;;13.80;95.80;;;;;;4997697;28;20180;-88
2022/09/09 02:31:24;;;;;;;36.93;28.83;;;13.80;95.80;;;;;;4997494;28;20193;-88
2022/09/09 02:33:58;;;;;;;38.20;28.43;;;13.80;95.80;;;;;;4997528;28;20639;-88
2022/09/09 02:36:28;;;;;;;33.77;27.63;;;13.80;95.80;;;;;;5015064;28;20209;-88
2022/09/09 02:38:55;;;;;;;37.20;28.37;;;13.70;95.70;;;;;;4997832;28;20168;-88
2022/09/09 02:41:28;;;;;;;34.40;27.03;;;13.80;95.80;;;;;;4997218;28;20205;-88
2022/09/09 02:43:53;;;;;;;44.40;27.63;;;13.80;95.70;;;;;;4997732;28;20255;-88
2022/09/09 02:46:44;;;;;;;35.47;27.00;;;13.70;95.70;;;;;;5015189;28;20198;-88
2022/09/09 02:49:18;;;;;;;34.63;27.30;;;13.80;95.70;;;;;;5015259;28;20525;-88
2022/09/09 02:52:10;;;;;;;34.90;27.97;;;13.80;95.70;;;;;;4997475;28;20169;-88
2022/09/09 02:54:38;;;;;;;31.67;25.93;;;13.80;95.70;;;;;;5015179;28;20192;-88
2022/09/09 02:57:12;;;;;;;37.27;27.77;;;13.80;95.70;;;;;;4997260;28;20193;-88
2022/09/09 02:59:39;;;;;;;40.33;28.70;;;13.80;95.60;;;;;;4998238;28;20165;-88
2022/09/09 03:02:05;;;;;;;32.83;27.00;;;13.70;95.60;;;;;;4997612;28;20178;-88
2022/09/09 03:04:31;;;;;;;38.57;29.03;;;13.70;95.60;;;;;;5015053;28;20203;-89
2022/09/09 03:06:58;;;;;;;36.13;27.40;;;13.70;95.60;;;;;;5014919;28;20689;-88
2022/09/09 03:09:23;;;;;;;36.50;28.70;;;13.70;95.60;;;;;;4997448;28;20177;-88
2022/09/09 03:11:50;;;;;;;35.00;26.87;;;13.70;95.60;;;;;;4997254;28;20177;-88
2022/09/09 03:14:16;;;;;;;32.60;26.97;;;13.80;95.60;;;;;;5014785;28;20180;-88
2022/09/09 03:16:42;;;;;;;34.40;26.20;;;13.70;95.50;;;;;;4996902;28;20232;-88
2022/09/09 03:19:09;;;;;;;32.87;25.73;;;13.50;95.40;;;;;;4997007;28;20176;-88
2022/09/09 03:21:35;;;;;;;38.60;27.10;;;13.50;95.40;;;;;;5014591;28;20170;-88
2022/09/09 03:24:03;;;;;;;39.03;25.83;;;13.50;95.40;;;;;;4997040;28;20173;-88
2022/09/09 03:26:30;;;;;;;34.40;26.83;;;13.40;95.40;;;;;;4996927;28;20587;-89
2022/09/09 03:28:55;;;;;;;37.87;26.47;;;13.40;95.40;;;;;;4996649;28;20573;-88
2022/09/09 03:31:21;;;;;;;30.93;24.47;;;13.50;95.40;;;;;;4996637;28;20181;-88
2022/09/09 03:33:47;;;;;;;40.27;25.23;;;13.50;95.40;;;;;;4996989;28;20196;-89
2022/09/09 03:36:13;;;;;;;32.07;24.00;;;13.50;95.30;;;;;;5014605;28;20205;-88
2022/09/09 03:38:39;;;;;;;28.10;24.07;;;13.50;95.30;;;;;;4997141;28;20262;-89
2022/09/09 03:41:05;;;;;;;31.70;23.23;;;13.50;95.30;;;;;;5014899;28;20256;-89
2022/09/09 03:43:31;;;;;;;25.73;21.43;;;13.40;95.30;;;;;;4996968;28;20255;-89
2022/09/09 03:45:56;;;;;;;28.33;20.93;;;13.40;95.30;;;;;;4996791;28;20198;-87
2022/09/09 03:48:24;;;;;;;22.80;19.13;;;13.40;95.30;;;;;;5014708;28;20580;-87
2022/09/09 03:50:52;;;;;;;23.33;19.63;;;13.40;95.20;;;;;;5014551;28;20256;-87
2022/09/09 03:53:20;;;;;;;21.87;17.73;;;13.30;95.10;;;;;;5014301;28;20519;-88
2022/09/09 03:55:47;;;;;;;19.97;17.87;;;13.30;95.20;;;;;;4996597;28;20769;-88
2022/09/09 03:58:14;;;;;;;19.50;17.00;;;13.20;95.10;;;;;;4996936;28;20212;-88
2022/09/09 04:00:42;;;;;;;21.77;16.90;;;13.20;95.10;;;;;;5014182;28;20269;-87
2022/09/09 04:03:09;;;;;;;19.37;17.10;;;13.20;95.10;;;;;;4997019;28;20205;-88
2022/09/09 04:05:39;;;;;;;24.67;20.33;;;13.10;95.00;;;;;;4996626;28;20264;-88
2022/09/09 04:08:05;;;;;;;25.37;19.93;;;13.10;95.10;;;;;;5014982;28;20188;-88
2022/09/09 04:10:31;;;;;;;23.60;19.47;;;13.10;95.00;;;;;;5000142;28;20197;-88
2022/09/09 04:12:56;;;;;;;25.47;20.77;;;13.10;95.00;;;;;;5000870;28;20185;-88
2022/09/09 04:15:22;;;;;;;28.93;21.77;;;13.10;95.00;;;;;;4999430;28;20205;-88
2022/09/09 04:17:47;;;;;;;28.97;22.53;;;13.10;95.00;;;;;;5000152;28;20173;-88
2022/09/09 04:20:13;;;;;;;31.70;23.47;;;13.10;94.90;;;;;;5000548;28;20169;-88
2022/09/09 04:22:38;;;;;;;32.43;23.83;;;13.10;95.00;;;;;;4999828;28;20312;-88
2022/09/09 04:25:05;;;;;;;28.73;22.60;;;13.00;94.90;;;;;;4999817;28;20229;-88
2022/09/09 04:27:31;;;;;;;32.67;22.90;;;13.10;95.00;;;;;;4999641;28;20201;-88
2022/09/09 04:29:57;;;;;;;28.43;22.03;;;13.10;94.90;;;;;;5017412;28;20184;-88
2022/09/09 04:32:23;;;;;;;30.90;22.20;;;13.10;94.90;;;;;;5017609;28;20524;-88
2022/09/09 04:34:48;;;;;;;28.17;23.27;;;13.20;95.00;;;;;;4999380;28;20223;-87
2022/09/09 04:37:14;;;;;;;29.10;21.97;;;13.20;95.00;;;;;;5017369;28;20233;-88
2022/09/09 04:39:40;;;;;;;27.63;22.50;;;13.20;95.00;;;;;;4999682;28;20239;-88
2022/09/09 04:42:05;;;;;;;24.03;21.03;;;13.30;94.90;;;;;;4999454;28;20174;-89
2022/09/09 04:44:31;;;;;;;29.57;21.17;;;13.20;94.90;;;;;;4998895;28;20702;-88
2022/09/09 04:46:57;;;;;;;27.67;21.37;;;13.20;94.90;;;;;;4998485;28;20287;-87
2022/09/09 04:49:23;;;;;;;24.23;21.13;;;13.20;94.90;;;;;;4998799;28;20192;-87
2022/09/09 04:51:51;;;;;;;32.10;22.70;;;13.30;94.90;;;;;;5016304;28;20173;-87
2022/09/09 04:54:17;;;;;;;32.67;20.50;;;13.30;94.80;;;;;;4998725;28;20188;-88
2022/09/09 04:56:43;;;;;;;28.73;21.80;;;13.20;94.90;;;;;;4998500;28;20557;-88
2022/09/09 04:59:09;;;;;;;25.77;20.97;;;13.30;94.90;;;;;;5016378;28;20173;-88
2022/09/09 05:01:35;;;;;;;26.40;20.83;;;13.30;94.90;;;;;;4998651;28;20228;-88
2022/09/09 05:04:02;;;;;;;26.83;20.97;;;13.20;94.80;;;;;;4998797;28;20174;-87
2022/09/09 05:06:28;;;;;;;29.37;23.03;;;13.20;94.80;;;;;;5016235;28;20186;-88
2022/09/09 05:08:54;;;;;;;32.90;22.47;;;13.20;94.80;;;;;;5016336;28;20260;-88
2022/09/09 05:11:25;;;;;;;27.80;22.33;;;13.20;94.80;;;;;;4998730;28;20204;-88
2022/09/09 05:13:51;;;;;;;31.00;22.63;;;13.20;94.80;;;;;;4998759;28;20586;-87
2022/09/09 05:16:18;;;;;;;30.03;21.50;;;13.20;94.80;;;;;;4998863;28;20635;-88
2022/09/09 05:18:44;;;;;;;29.53;22.70;;;13.20;94.80;;;;;;4998332;28;20200;-88
2022/09/09 05:21:10;;;;;;;34.67;23.87;;;13.20;94.80;;;;;;4997476;28;20646;-88
2022/09/09 05:23:37;;;;;;;34.63;23.20;;;13.30;94.80;;;;;;5016233;28;20169;-89
2022/09/09 05:26:03;;;;;;;35.13;24.70;;;13.30;94.90;;;;;;5015940;28;20213;-87
2022/09/09 05:28:30;;;;;;;33.40;24.53;;;13.30;94.90;;;;;;5016034;28;20252;-88
2022/09/09 05:31:05;;;;;;;31.13;23.23;;;13.40;94.90;;;;;;4998402;28;20243;-88
2022/09/09 05:33:31;;;;;;;35.57;24.57;;;13.50;95.00;;;;;;4998257;28;20188;-88
2022/09/09 05:36:06;;;;;;;34.70;24.70;;;13.50;95.00;;;;;;5015349;28;20209;-87
2022/09/09 05:38:34;;;;;;;34.10;24.13;;;13.60;95.00;;;;;;5015487;28;20173;-88
2022/09/09 05:41:02;;;;;;;33.40;24.07;;;13.70;95.10;;;;;;5015368;28;20189;-88
2022/09/09 05:43:29;;;;;;;38.13;25.23;;;13.70;95.10;;;;;;4998111;28;20184;-87
2022/09/09 05:46:07;;;;;;;31.60;24.17;;;13.80;95.10;;;;;;5015892;28;20190;-87
2022/09/09 05:48:41;;;;;;;33.50;24.33;;;13.80;95.10;;;;;;5015910;28;20184;-88
2022/09/09 05:51:15;;;;;;;34.80;23.67;;;13.90;95.20;;;;;;4997589;28;20689;-88
2022/09/09 05:53:41;;;;;;;29.63;22.73;;;13.90;95.10;;;;;;4997859;28;20569;-88
2022/09/09 05:56:19;;;;;;;31.97;22.73;;;13.90;95.10;;;;;;4997656;28;20212;-88
2022/09/09 05:58:46;;;;;;;30.80;21.70;;;13.90;95.10;;;;;;4997722;28;20186;-88
2022/09/09 06:01:30;;;;;;;32.23;22.27;;;14.00;95.20;;;;;;4997389;28;20181;-88
2022/09/09 06:03:56;;;;;;;26.30;20.60;;;14.00;95.10;;;;;;5014928;28;20165;-88
2022/09/09 06:06:27;;;;;;;26.37;20.93;;;13.90;95.10;;;;;;4997506;28;20288;-89
2022/09/09 06:08:56;;;;;;;29.87;19.77;;;13.90;95.10;;;;;;4997411;28;20219;-89
2022/09/09 06:11:27;;;;;;;27.93;21.27;;;13.90;95.10;;;;;;4997673;28;20635;-89
2022/09/09 06:13:54;;;;;;;27.77;18.77;;;13.90;95.10;;;;;;4997597;28;20205;-88
2022/09/09 06:16:25;;;;;;;24.50;18.60;;;13.90;95.10;;;;;;5014999;28;20658;-89
2022/09/09 06:18:51;;;;;;;27.10;18.40;;;13.90;95.10;;;;;;5015072;28;20232;-88
2022/09/09 06:21:18;;;;;;;29.87;18.97;;;13.90;95.10;;;;;;4997069;28;20208;-89
2022/09/09 06:23:44;;;;;;;24.30;17.50;;;13.90;95.10;;;;;;4997092;28;20173;-87
2022/09/09 06:26:11;;;;;;;25.93;17.87;;;14.00;95.10;;;;;;4996932;28;20212;-87
2022/09/09 06:28:37;;;;;;;30.90;16.87;;;14.00;95.10;;;;;;4996832;28;20185;-87
2022/09/09 06:31:08;;;;;;;26.30;17.60;;;14.00;95.10;;;;;;4996375;28;20181;-88
2022/09/09 06:33:37;;;;;;;25.20;17.37;;;14.00;95.00;;;;;;4997117;28;20180;-88
2022/09/09 06:36:03;;;;;;;23.73;17.17;;;14.00;95.10;;;;;;4996721;28;20213;-88
2022/09/09 06:38:29;;;;;;;24.87;16.33;;;14.10;95.00;;;;;;4996845;28;20180;-88
2022/09/09 06:40:58;;;;;;;20.90;15.90;;;14.20;95.10;;;;;;5014441;28;20169;-88
2022/09/09 06:43:24;;;;;;;23.57;16.77;;;14.20;95.10;;;;;;4996663;28;20264;-88
2022/09/09 06:46:00;;;;;;;26.40;15.93;;;14.20;95.00;;;;;;5014145;28;20200;-88
2022/09/09 06:48:27;;;;;;;22.77;16.50;;;14.20;95.10;;;;;;5014545;28;20204;-88
2022/09/09 06:51:08;;;;;;;21.10;15.70;;;14.30;95.00;;;;;;4996670;28;20178;-88
2022/09/09 06:53:36;;;;;;;22.37;15.77;;;14.30;95.10;;;;;;4996730;28;20204;-88
2022/09/09 06:56:10;;;;;;;20.07;14.90;;;14.40;95.00;;;;;;4996254;28;20263;-88
2022/09/09 06:58:43;;;;;;;23.87;14.63;;;14.40;95.10;;;;;;4996478;28;20239;-88
2022/09/09 07:01:12;;;;;;;20.90;15.20;;;14.50;95.00;;;;;;4996635;28;20662;-88
2022/09/09 07:03:38;;;;;;;23.30;14.43;;;14.50;95.00;;;;;;5014546;28;20177;-88
2022/09/09 07:06:05;;;;;;;20.37;14.70;;;14.60;95.10;;;;;;4996644;28;20266;-87
2022/09/09 07:08:31;;;;;;;23.33;14.00;;;14.70;95.10;;;;;;4996962;28;20517;-88
2022/09/09 07:11:05;;;;;;;23.53;14.33;;;14.70;95.10;;;;;;4996969;28;20686;-88
2022/09/09 07:13:31;;;;;;;19.53;14.27;;;14.70;95.10;;;;;;4996319;28;20230;-88
2022/09/09 07:16:05;;;;;;;20.37;13.50;;;14.70;95.00;;;;;;5013676;28;20205;-88
2022/09/09 07:18:30;;;;;;;23.27;13.87;;;14.80;95.10;;;;;;4999461;28;20259;-88
2022/09/09 07:20:56;;;;;;;20.73;13.17;;;14.90;95.10;;;;;;5013944;28;20523;-88
2022/09/09 07:23:22;;;;;;;18.30;13.77;;;14.80;95.10;;;;;;4996966;28;20530;-87
2022/09/09 07:25:48;;;;;;;23.63;15.00;;;14.90;95.10;;;;;;4996522;28;20213;-88
2022/09/09 07:28:14;;;;;;;17.90;12.77;;;14.90;95.10;;;;;;4996449;28;20617;-88
2022/09/09 07:30:41;;;;;;;18.70;13.17;;;15.00;95.10;;;;;;4996616;28;20183;-88
2022/09/09 07:33:06;;;;;;;16.80;13.40;;;15.20;95.10;;;;;;4996835;28;20213;-88
2022/09/09 07:35:32;;;;;;;15.27;11.87;;;15.20;95.00;;;;;;4996763;28;20205;-89
2022/09/09 07:38:00;;;;;;;12.50;10.77;;;15.20;94.80;;;;;;4997052;28;20169;-88
2022/09/09 07:40:25;;;;;;;16.73;11.87;;;15.30;94.70;;;;;;5014695;28;20235;-89
2022/09/09 07:42:51;;;;;;;19.77;11.63;;;15.30;94.70;;;;;;4996789;28;20639;-88
2022/09/09 07:45:16;;;;;;;17.03;11.53;;;15.30;94.40;;;;;;5000968;28;20652;-88
2022/09/09 07:47:42;;;;;;;14.40;11.30;;;15.20;94.30;;;;;;5000886;28;20177;-87
2022/09/09 07:50:09;;;;;;;17.20;12.23;;;15.30;94.10;;;;;;5000101;28;20640;-88
2022/09/09 07:52:35;;;;;;;16.83;11.30;;;15.40;94.20;;;;;;5017506;28;20180;-88
2022/09/09 07:55:02;;;;;;;18.77;11.30;;;15.50;93.80;;;;;;4999412;28;20205;-88
2022/09/09 07:57:30;;;;;;;13.10;10.37;;;15.60;93.70;;;;;;5017032;28;20239;-88
2022/09/09 07:59:56;;;;;;;15.43;9.97;;;15.60;93.30;;;;;;5000353;28;20235;-88
2022/09/09 08:02:23;;;;;;;15.80;10.00;;;15.60;93.10;;;;;;5017272;28;20169;-90
2022/09/09 08:04:49;;;;;;;15.50;9.23;;;15.50;92.70;;;;;;4999569;28;20239;-89
2022/09/09 08:07:15;;;;;;;14.23;8.73;;;15.60;92.40;;;;;;5016820;28;20252;-87
2022/09/09 08:09:41;;;;;;;16.57;9.17;;;15.70;92.30;;;;;;4999901;28;20265;-86
2022/09/09 08:12:08;;;;;;;12.48;9.40;;;15.80;92.30;;;;;;5017417;28;20208;-87
2022/09/09 08:14:33;;;;;;;14.27;10.33;;;15.70;91.90;;;;;;4999452;28;20177;-88
2022/09/09 08:16:59;;;;;;;13.23;8.87;;;15.70;92.00;;;;;;5017084;28;20224;-88
2022/09/09 08:19:25;;;;;;;11.10;8.15;;;15.80;92.00;;;;;;4999193;28;20256;-87
2022/09/09 08:21:50;;;;;;;14.35;8.63;;;15.80;92.00;;;;;;4999644;28;20180;-87
2022/09/09 08:24:16;;;;;;;10.55;7.82;;;15.80;91.80;;;;;;5018005;28;20177;-90
2022/09/09 08:26:48;;;;;;;11.95;7.70;;;15.80;91.40;;;;;;4999691;28;20217;-88
2022/09/09 08:29:15;;;;;;;14.73;7.82;;;16.00;91.80;;;;;;5016893;28;20181;-88
2022/09/09 08:31:46;;;;;;;10.38;7.25;;;16.10;91.80;;;;;;5017980;28;20240;-89
2022/09/09 08:34:12;;;;;;;9.25;7.30;;;16.00;91.40;;;;;;5000173;28;20187;-89
2022/09/09 08:36:42;;;;;;;9.95;6.97;;;16.00;91.30;;;;;;4999003;28;20661;-89
2022/09/09 08:39:09;;;;;;;14.48;6.82;;;16.10;90.90;;;;;;4998492;28;20182;-89
2022/09/09 08:42:02;;;;;;;6.82;5.93;;;16.10;90.60;;;;;;5017628;28;20578;-89
2022/09/09 08:44:42;;;;;;;15.50;6.13;;;16.00;90.10;;;;;;4999476;28;20597;-87
2022/09/09 08:47:23;;;;;;;7.43;5.50;;;16.00;90.00;;;;;;4999036;28;20197;-88
2022/09/09 08:50:13;;;;;;;12.57;5.82;;;16.20;90.20;;;;;;5016855;28;20157;-89
2022/09/09 08:52:52;;;;;;;9.93;5.90;;;16.20;90.00;;;;;;4998811;28;20177;-90
2022/09/09 08:55:41;;;;;;;8.50;5.47;;;16.30;90.00;;;;;;4998509;28;20205;-87
2022/09/09 08:58:13;;;;;;;8.30;6.35;;;16.40;89.70;;;;;;5017106;28;20639;-90
2022/09/09 09:01:16;;;;;;;8.90;5.97;;;16.50;89.50;;;;;;4998807;28;20196;-89
2022/09/09 09:04:10;;;;;;;9.07;5.63;;;16.60;89.20;;;;;;5017642;28;20158;-88
2022/09/09 09:06:50;;;;;;;8.93;5.97;;;16.60;88.90;;;;;;4999346;28;20201;-88
2022/09/09 09:09:34;;;;;;;6.63;5.60;;;16.70;89.00;;;;;;4998826;28;20165;-89
2022/09/09 09:12:02;;;;;;;5.72;5.15;;;17.00;89.30;;;;;;5017895;28;20172;-90
2022/09/09 09:14:33;;;;;;;7.32;5.20;;;17.10;88.90;;;;;;5000742;28;20269;-89
2022/09/09 09:17:06;;;;;;;8.27;4.95;;;16.80;88.00;;;;;;5020771;28;20683;-89
2022/09/09 09:19:34;;;;;;;7.15;5.50;;;16.80;87.60;;;;;;5015910;28;20293;-88
2022/09/09 09:22:15;;;;;;;6.00;4.70;;;17.00;88.30;;;;;;4999771;28;20205;-88
2022/09/09 09:25:08;;;;;;;7.97;4.32;;;17.10;87.70;;;;;;5016120;28;20169;-89
2022/09/09 09:27:39;;;;;;;8.50;5.05;;;17.20;87.20;;;;;;5016446;28;20768;-90
2022/09/09 09:30:22;;;;;;;10.50;4.63;;;17.40;87.20;;;;;;4999233;28;20169;-89
2022/09/09 09:33:17;;;;;;;6.57;4.00;;;17.60;86.90;;;;;;4999094;28;20169;-86
2022/09/09 09:35:43;;;;;;;6.00;3.80;;;17.80;86.10;;;;;;4998257;28;20210;-88
2022/09/09 09:38:22;;;;;;;6.03;3.40;;;17.80;85.50;;;;;;5015130;28;20263;-88
2022/09/09 09:40:57;;;;;;;4.28;3.08;;;18.00;85.90;;;;;;5014892;28;20175;-88
2022/09/09 09:43:34;;;;;;;11.70;3.90;;;18.30;85.30;;;;;;4998161;28;20191;-89
2022/09/09 09:46:03;;;;;;;8.05;3.70;;;18.40;85.00;;;;;;4997220;28;20232;-88
2022/09/09 09:48:28;;;;;;;5.55;3.38;;;18.70;85.50;;;;;;4998275;28;20177;-89
2022/09/09 09:51:07;;;;;;;5.50;3.25;;;18.70;84.30;;;;;;4997295;28;20696;-88
2022/09/09 09:53:35;;;;;;;6.40;3.63;;;18.70;84.00;;;;;;4997332;28;20199;-88
2022/09/09 09:56:03;;;;;;;6.47;3.30;;;18.90;83.40;;;;;;4996956;28;20216;-88
2022/09/09 09:58:47;;;;;;;9.52;3.38;;;19.10;82.90;;;;;;5014639;28;20196;-87
2022/09/09 10:01:33;;;;;;;8.18;3.15;;;19.30;81.20;;;;;;5014757;28;20154;-88
2022/09/09 10:04:25;;;;;;;6.43;3.50;;;18.80;80.60;;;;;;4997209;28;20181;-88
2022/09/09 10:06:51;;;;;;;5.65;3.53;;;18.70;81.70;;;;;;5013780;28;20559;-84
2022/09/09 10:09:43;;;;;;;8.13;6.07;;;18.50;81.30;;;;;;5014480;28;20260;-86
2022/09/09 10:12:25;;;;;;;11.32;4.45;;;18.30;82.90;;;;;;5010930;28;20264;-85
2022/09/09 10:15:02;;;;;;;7.25;4.40;;;17.90;82.60;;;;;;5014470;28;20197;-86
2022/09/09 10:17:33;;;;;;;5.18;3.75;;;18.00;83.10;;;;;;4997227;28;20219;-87
2022/09/09 10:20:12;;;;;;;7.13;3.55;;;18.00;83.30;;;;;;4996869;28;20628;-85
2022/09/09 10:22:43;;;;;;;4.25;3.45;;;18.00;83.00;;;;;;5014044;28;20208;-84
2022/09/09 10:25:18;;;;;;;5.20;2.75;;;18.00;83.00;;;;;;5013930;28;20220;-84
2022/09/09 10:27:46;;;;;;;4.30;2.90;;;18.30;82.00;;;;;;5014362;28;20259;-86
2022/09/09 10:30:18;;;;;;;3.88;2.35;;;18.40;81.60;;;;;;4996495;28;20177;-87
2022/09/09 10:32:56;;;;;;;4.25;2.67;;;18.80;80.60;;;;;;4996428;28;20181;-86
2022/09/09 10:35:49;;;;;;;4.10;2.85;;;18.80;81.10;;;;;;4996323;28;20201;-85
2022/09/09 10:38:29;;;;;;;4.72;2.90;;;18.90;79.90;;;;;;5014323;28;20165;-85
2022/09/09 10:40:57;;;;;;;3.80;2.70;;;19.00;81.00;;;;;;5014277;28;20179;-86
2022/09/09 10:43:43;;;;;;;6.85;2.85;;;19.40;80.50;;;;;;4996719;28;20173;-86
2022/09/09 10:46:21;;;;;;;8.73;2.70;;;19.70;80.10;;;;;;4996294;28;20209;-84
2022/09/09 10:49:26;;;;;;;5.05;3.00;;;19.50;78.30;;;;;;4996432;28;20181;-85
2022/09/09 10:52:07;;;;;;;5.15;2.90;;;19.90;79.40;;;;;;4996484;28;20169;-86
2022/09/09 10:54:54;;;;;;;4.40;2.50;;;19.90;78.10;;;;;;5014220;28;20194;-86
2022/09/09 10:57:36;;;;;;;3.63;2.70;;;19.70;78.40;;;;;;4996161;28;20380;-85
2022/09/09 11:00:29;;;;;;;6.55;2.42;;;19.60;78.00;;;;;;5014086;28;20248;-86
2022/09/09 11:03:02;;;;;;;5.70;2.97;;;19.90;78.60;;;;;;4978526;28;20188;-87
2022/09/09 11:05:42;;;;;;;3.55;1.77;;;20.00;76.50;;;;;;5013491;28;20170;-85
2022/09/09 11:08:17;;;;;;;3.22;1.92;;;20.00;76.30;;;;;;5013685;28;20525;-84
2022/09/09 11:11:19;;;;;;;3.90;1.90;;;19.90;75.80;;;;;;5013709;28;20184;-85
2022/09/09 11:13:51;;;;;;;4.22;1.70;;;19.90;76.80;;;;;;4996127;28;20252;-86
2022/09/09 11:16:48;;;;;;;3.85;1.90;;;20.00;76.30;;;;;;4995890;28;20725;-86
2022/09/09 11:19:22;;;;;;;3.15;1.85;;;20.10;74.60;;;;;;5000257;28;20169;-86
2022/09/09 11:21:50;;;;;;;3.28;1.98;;;19.90;74.80;;;;;;5001697;28;20249;-87
2022/09/09 11:24:20;;;;;;;2.35;1.52;;;20.10;73.60;;;;;;5021380;28;20166;-86
2022/09/09 11:26:57;;;;;;;6.22;2.10;;;20.30;74.20;;;;;;5004896;28;20213;-87
2022/09/09 11:29:44;;;;;;;5.32;1.83;;;20.10;74.70;;;;;;5022490;28;20166;-88
2022/09/09 11:32:28;;;;;;;3.47;2.08;;;19.90;75.00;;;;;;5001370;28;20185;-88
2022/09/09 11:35:27;;;;;;;5.97;2.00;;;19.70;74.90;;;;;;5000122;28;20204;-88
2022/09/09 11:38:09;;;;;;;3.97;1.55;;;19.70;75.80;;;;;;4995876;28;20212;-90
2022/09/09 11:40:35;;;;;;;5.03;1.85;;;19.80;76.20;;;;;;4999514;28;20170;-90
2022/09/09 11:43:22;;;;;;;5.05;2.00;;;19.80;76.20;;;;;;4999755;28;20272;-88
2022/09/09 11:45:53;;;;;;;4.25;2.20;;;19.70;76.20;;;;;;4999483;28;20292;-89
2022/09/09 11:48:29;;;;;;;4.47;2.67;;;19.70;76.00;;;;;;5016943;28;20173;-89
2022/09/09 11:51:20;;;;;;;4.35;2.58;;;19.50;75.60;;;;;;5018030;28;20219;-89
2022/09/09 11:53:53;;;;;;;3.83;2.63;;;19.50;76.10;;;;;;4997342;28;20220;-90
2022/09/09 11:56:45;;;;;;;9.68;2.90;;;19.70;77.10;;;;;;5000304;28;20228;-90
2022/09/09 11:59:24;;;;;;;7.05;2.20;;;19.90;75.40;;;;;;4996568;28;20181;-89
2022/09/09 12:02:14;;;;;;;4.32;2.15;;;20.00;76.00;;;;;;5001736;28;20193;-91
2022/09/09 12:04:48;;;;;;;3.85;1.95;;;20.30;74.10;;;;;;5004227;28;20200;-90
2022/09/09 12:07:42;;;;;;;5.65;1.98;;;20.50;74.50;;;;;;5001673;28;20188;-90
2022/09/09 12:10:07;;;;;;;5.55;2.22;;;20.30;74.50;;;;;;4999870;28;20182;-89
2022/09/09 12:12:37;;;;;;;7.97;2.03;;;20.30;74.90;;;;;;5000328;28;20170;-91
2022/09/09 12:15:09;;;;;;;6.63;2.30;;;20.60;75.60;;;;;;5001583;28;20202;-90
2022/09/09 12:17:47;;;;;;;5.40;2.30;;;20.90;74.50;;;;;;5000464;28;20205;-91
2022/09/09 12:20:41;;;;;;;9.27;2.90;;;20.90;73.00;;;;;;5002983;28;20268;-90
2022/09/09 12:23:42;;;;;;;6.35;2.33;;;20.60;71.30;;;;;;5004609;28;20181;-87
2022/09/09 12:26:30;;;;;;;6.78;2.20;;;20.20;72.80;;;;;;5002545;28;20223;-89
2022/09/09 12:29:12;;;;;;;3.50;1.80;;;20.10;73.70;;;;;;5001610;28;20181;-89
2022/09/09 12:31:40;;;;;;;6.22;2.20;;;20.00;72.80;;;;;;4999720;28;20177;-89
2022/09/09 12:34:13;;;;;;;5.28;1.92;;;20.20;73.30;;;;;;4998775;28;20180;-89
2022/09/09 12:36:41;;;;;;;9.10;2.45;;;20.20;71.80;;;;;;4998374;28;20205;-89
2022/09/09 12:39:21;;;;;;;5.93;2.17;;;20.30;73.50;;;;;;4999358;28;20173;-90
2022/09/09 12:41:57;;;;;;;9.13;2.05;;;20.40;72.70;;;;;;5019250;28;20169;-89
2022/09/09 12:44:24;;;;;;;2.97;1.60;;;20.50;73.60;;;;;;4999379;28;20177;-90
2022/09/09 12:46:52;;;;;;;4.63;1.90;;;20.50;72.60;;;;;;4999656;28;20193;-90
2022/09/09 12:49:38;;;;;;;5.20;1.85;;;20.50;73.10;;;;;;4998832;28;20204;-87
2022/09/09 12:52:40;;;;;;;3.33;1.67;;;20.60;73.20;;;;;;4998496;28;20212;-87
2022/09/09 12:55:08;;;;;;;7.03;2.10;;;20.60;73.10;;;;;;4955568;28;20304;-88
2022/09/09 12:57:37;;;;;;;4.30;1.98;;;20.70;72.70;;;;;;4998016;28;20194;-87
2022/09/09 13:00:15;;;;;;;6.70;2.15;;;20.70;72.60;;;;;;4998025;28;20550;-87
2022/09/09 13:02:59;;;;;;;6.60;2.00;;;20.80;72.90;;;;;;4997890;28;20180;-87
2022/09/09 13:05:28;;;;;;;6.60;1.83;;;20.70;73.00;;;;;;4997807;28;20602;-87